Main page
METAR-TAF:

Airports :

Gloucester, England

Gloucestershire Airport

latitude: 51-54N, longitude: 002-10W, elevation: 29 m

Current weather observation

The report was made 41 minutes ago, at 16:20 UTC
Wind 6 kt from the Southwest, varying between South and West
Temperature 24°C
Humidity 54%
Pressure 1022 hPa
Visibility 10 km or more
Few clouds at a height of 4500 ft

METAR: EGBJ 301620Z 23006KT 190V260 9999 FEW045 24/14 Q1022

Time: 18:01 (17:01 UTC)

Forecast

The report was made 2 hours and 59 minutes ago, at 14:02 UTC
Forecast valid from 30 at 15 UTC to 30 at 19 UTC
Wind 6 kt from the Southwest
Visibility 10 km or more
Few clouds at a height of 4000 ft

TAF: EGBJ 301402Z 3015/3019 23006KT 9999 FEW040

METAR-TAF

Weather observations and forecasts of more than 4000 airports (METAR and TAF reports).

The available stations are represented by yellow and red dots on the map.

Hover mouse over dot to see the name of the station.

Then click to see weather observations and forecasts.

To change the map : click on the green buttons with a black cross to zoom in, on the green button with a dash to zoom out, or on the green arrows for adjacent maps.


METAR-TAF: